Time;durP1;ratioP1;P1;durP2;ratioP2;P2;SDS_P1;SDS_P2;PMS_P1;PMS_P2;Temp;Humidity;BMP_temperature;BMP_pressure;BME280_temperature;BME280_humidity;BME280_pressure;Samples;Min_cycle;Max_cycle;Signal;HPM_P1;HPM_P2
2021/01/15 00:00:17;;;;;;;10.50;5.80;;;-5.00;99.90;;;;;;4970550;28;20071;-73
2021/01/15 00:02:43;;;;;;;9.63;5.80;;;-4.70;99.90;;;;;;4972392;28;20428;-72
2021/01/15 00:05:09;;;;;;;10.03;5.50;;;-4.60;99.90;;;;;;4973961;28;20185;-73
2021/01/15 00:07:34;;;;;;;9.93;5.93;;;-4.70;99.90;;;;;;4973511;28;20071;-72
2021/01/15 00:10:00;;;;;;;11.03;5.23;;;-4.70;99.90;;;;;;4981929;28;20149;-72
2021/01/15 00:12:26;;;;;;;7.77;5.40;;;-4.60;99.90;;;;;;4985991;28;20133;-73
2021/01/15 00:14:51;;;;;;;10.20;5.43;;;-4.70;99.90;;;;;;4987625;28;20117;-72
2021/01/15 00:17:17;;;;;;;10.73;5.77;;;-4.70;99.90;;;;;;4981352;28;20592;-72
2021/01/15 00:19:42;;;;;;;10.80;5.83;;;-4.70;99.90;;;;;;4978078;28;20851;-73
2021/01/15 00:22:08;;;;;;;8.77;5.73;;;-4.50;99.90;;;;;;4980214;28;20067;-73
2021/01/15 00:24:33;;;;;;;7.60;5.20;;;-4.00;99.90;;;;;;4971483;28;20098;-72
2021/01/15 00:26:59;;;;;;;7.73;5.07;;;-3.60;99.90;;;;;;4973419;28;20094;-72
2021/01/15 00:29:25;;;;;;;10.20;5.30;;;-3.70;99.90;;;;;;4974892;28;20083;-72
2021/01/15 00:31:50;;;;;;;12.80;5.63;;;-3.60;99.90;;;;;;4970593;28;20086;-72
2021/01/15 00:34:17;;;;;;;9.33;5.67;;;-4.20;99.90;;;;;;4986401;28;20118;-71
2021/01/15 00:36:45;;;;;;;9.67;5.60;;;-4.00;99.90;;;;;;4985245;28;20578;-72
2021/01/15 00:39:14;;;;;;;9.43;5.23;;;-3.90;99.90;;;;;;4979645;28;20154;-73
2021/01/15 00:41:42;;;;;;;8.20;5.03;;;-4.60;99.90;;;;;;4970919;28;20581;-72
2021/01/15 00:44:08;;;;;;;8.90;5.43;;;-4.80;99.90;;;;;;4986354;28;20483;-72
2021/01/15 00:46:34;;;;;;;7.40;4.90;;;-4.60;99.90;;;;;;4975191;28;20126;-72
2021/01/15 00:49:08;;;;;;;9.93;5.73;;;-4.30;99.90;;;;;;4974610;28;20137;-72
2021/01/15 00:51:34;;;;;;;11.77;5.13;;;-4.20;99.90;;;;;;4980817;28;20161;-72
2021/01/15 00:54:00;;;;;;;10.43;5.33;;;-4.20;99.90;;;;;;4988646;28;20102;-72
2021/01/15 00:56:26;;;;;;;11.13;6.17;;;-4.40;99.90;;;;;;4985466;28;20102;-72
2021/01/15 00:58:51;;;;;;;10.07;5.73;;;-5.30;99.90;;;;;;4987336;28;20098;-72
2021/01/15 01:01:19;;;;;;;10.07;5.93;;;-5.70;99.90;;;;;;4974300;28;20093;-73
2021/01/15 01:03:46;;;;;;;8.83;5.20;;;-5.20;99.90;;;;;;4986051;28;20150;-72
2021/01/15 01:06:12;;;;;;;8.10;5.60;;;-4.90;99.90;;;;;;4972574;28;20099;-72
2021/01/15 01:08:38;;;;;;;8.77;4.90;;;-4.90;99.90;;;;;;4972944;28;20094;-73
2021/01/15 01:11:09;;;;;;;8.97;5.47;;;-4.80;99.90;;;;;;4986183;28;20075;-72
2021/01/15 01:13:34;;;;;;;10.43;5.60;;;-5.00;99.90;;;;;;4983901;28;20095;-72
2021/01/15 01:16:00;;;;;;;10.77;6.37;;;-5.40;99.90;;;;;;4982980;28;20102;-72
2021/01/15 01:18:25;;;;;;;12.07;6.03;;;-5.30;99.90;;;;;;4975024;28;20079;-73
2021/01/15 01:20:51;;;;;;;8.90;5.70;;;-4.90;99.90;;;;;;4981209;28;20086;-72
2021/01/15 01:23:16;;;;;;;9.30;5.23;;;-4.60;99.90;;;;;;4974479;28;20167;-72
2021/01/15 01:25:42;;;;;;;6.50;5.13;;;-5.40;99.90;;;;;;4968921;28;20544;-72
2021/01/15 01:28:08;;;;;;;9.57;5.67;;;-5.40;99.90;;;;;;4973714;28;20547;-72
2021/01/15 01:30:33;;;;;;;10.50;5.00;;;-5.10;99.90;;;;;;4982033;28;20451;-72
2021/01/15 01:32:59;;;;;;;9.80;4.70;;;-5.10;99.90;;;;;;4974654;28;20083;-73
2021/01/15 01:35:25;;;;;;;11.23;5.93;;;-5.00;99.90;;;;;;4982153;28;20094;-73
2021/01/15 01:37:50;;;;;;;10.00;5.43;;;-4.70;99.90;;;;;;4975124;28;20083;-72
2021/01/15 01:40:16;;;;;;;10.17;5.53;;;-4.50;99.90;;;;;;4973710;28;20199;-72
2021/01/15 01:42:41;;;;;;;11.13;5.27;;;-4.70;99.90;;;;;;4974391;28;20215;-73
2021/01/15 01:45:08;;;;;;;9.33;5.03;;;-4.60;99.90;;;;;;4974157;28;20083;-72
2021/01/15 01:47:34;;;;;;;10.10;5.23;;;-4.90;99.90;;;;;;4973564;28;20075;-72
2021/01/15 01:50:00;;;;;;;7.87;4.70;;;-5.00;99.90;;;;;;4972835;28;20586;-71
2021/01/15 01:52:25;;;;;;;7.37;4.67;;;-5.30;99.90;;;;;;4982053;28;20165;-72
2021/01/15 01:54:51;;;;;;;10.53;5.80;;;-5.20;99.90;;;;;;4979461;28;20136;-72
2021/01/15 01:57:17;;;;;;;8.63;4.93;;;-4.90;99.90;;;;;;4980188;28;20079;-72
2021/01/15 01:59:42;;;;;;;9.70;5.60;;;-5.10;99.90;;;;;;4974058;28;20166;-72
2021/01/15 02:02:09;;;;;;;9.67;5.23;;;-5.30;99.90;;;;;;4973384;28;20075;-70
2021/01/15 02:04:35;;;;;;;8.60;5.17;;;-5.40;99.90;;;;;;4972871;28;20578;-72
2021/01/15 02:07:00;;;;;;;9.70;5.27;;;-5.40;99.90;;;;;;4972934;28;20123;-72
2021/01/15 02:09:50;;;;;;;8.60;5.00;;;-4.80;99.90;;;;;;4987081;28;20118;-72
2021/01/15 02:12:25;;;;;;;9.33;5.30;;;-4.70;99.90;;;;;;4969813;28;20087;-73
2021/01/15 02:15:04;;;;;;;10.15;5.32;;;-5.00;99.90;;;;;;4973069;28;20114;-72
2021/01/15 02:17:35;;;;;;;7.90;5.33;;;-5.50;99.90;;;;;;4983289;28;20570;-71
2021/01/15 02:20:07;;;;;;;9.53;5.20;;;-5.10;99.90;;;;;;4984783;28;20080;-72
2021/01/15 02:23:02;;;;;;;7.93;4.77;;;-5.10;99.90;;;;;;4972617;28;20063;-72
2021/01/15 02:25:58;;;;;;;12.27;5.33;;;-4.80;99.90;;;;;;4990386;28;20105;-72
2021/01/15 02:28:37;;;;;;;10.77;5.53;;;-4.90;99.90;;;;;;4972352;28;20543;-72
2021/01/15 02:31:28;;;;;;;9.93;5.73;;;-5.20;99.90;;;;;;4976838;28;20198;-72
2021/01/15 02:34:26;;;;;;;10.47;5.83;;;-5.30;99.90;;;;;;4979164;28;20573;-73
2021/01/15 02:37:29;;;;;;;7.17;5.27;;;-5.10;99.90;;;;;;4983977;28;20171;-73
2021/01/15 02:40:04;;;;;;;7.43;5.07;;;-5.80;99.90;;;;;;4977584;28;20079;-72
2021/01/15 02:42:36;;;;;;;9.18;5.22;;;-5.60;99.90;;;;;;4973920;28;20566;-72
2021/01/15 02:45:07;;;;;;;9.60;5.37;;;-5.30;99.90;;;;;;4977709;28;20086;-72
2021/01/15 02:47:42;;;;;;;8.17;5.43;;;-5.50;99.90;;;;;;4975138;28;20493;-72
2021/01/15 02:50:10;;;;;;;8.37;4.77;;;-5.70;99.90;;;;;;4972878;28;20451;-72
2021/01/15 02:52:36;;;;;;;8.73;4.83;;;-5.50;99.90;;;;;;4981393;28;20082;-71
2021/01/15 02:55:03;;;;;;;10.03;5.63;;;-5.20;99.90;;;;;;4972617;28;20083;-73
2021/01/15 02:57:28;;;;;;;11.33;6.20;;;-5.70;99.90;;;;;;4973019;28;20443;-72
2021/01/15 02:59:54;;;;;;;7.80;5.07;;;-5.70;99.90;;;;;;4989955;28;20538;-72
2021/01/15 03:02:38;;;;;;;8.47;5.33;;;-5.80;99.90;;;;;;4989293;28;20086;-72
2021/01/15 03:05:17;;;;;;;9.20;5.00;;;-5.40;99.90;;;;;;4976810;28;20083;-72
2021/01/15 03:07:44;;;;;;;11.10;5.57;;;-5.30;99.90;;;;;;4972457;28;20158;-72
2021/01/15 03:10:11;;;;;;;9.00;5.10;;;-5.20;99.90;;;;;;4973132;28;20083;-73
2021/01/15 03:12:40;;;;;;;12.90;5.90;;;-4.80;99.90;;;;;;4972778;28;20070;-72
2021/01/15 03:15:08;;;;;;;12.07;5.57;;;-5.20;99.90;;;;;;4972326;28;20095;-71
2021/01/15 03:17:39;;;;;;;5.83;4.37;;;-5.50;99.90;;;;;;4972523;28;20154;-72
2021/01/15 03:20:05;;;;;;;12.10;6.43;;;-5.50;99.90;;;;;;4976968;28;20229;-72
2021/01/15 03:22:33;;;;;;;9.93;4.83;;;-5.50;99.90;;;;;;4975039;28;20093;-72
2021/01/15 03:25:00;;;;;;;7.10;4.83;;;-5.80;99.90;;;;;;4973950;28;20086;-72
2021/01/15 03:27:43;;;;;;;10.30;5.50;;;-6.20;99.90;;;;;;4981760;28;20075;-72
2021/01/15 03:30:12;;;;;;;11.73;5.20;;;-6.00;99.90;;;;;;5011122;23;20114;-81
2021/01/15 03:32:37;;;;;;;10.03;5.73;;;-5.80;99.90;;;;;;5004418;28;20071;-80
2021/01/15 03:35:05;;;;;;;9.30;5.27;;;-5.30;99.90;;;;;;4997259;28;20085;-79
2021/01/15 03:37:32;;;;;;;8.00;5.40;;;-5.10;99.90;;;;;;5011779;28;20180;-79
2021/01/15 03:39:57;;;;;;;8.47;5.13;;;-5.30;99.90;;;;;;5006962;28;20114;-80
2021/01/15 03:42:23;;;;;;;9.90;5.80;;;-5.50;99.90;;;;;;4994525;28;20094;-80
2021/01/15 03:44:48;;;;;;;8.50;5.33;;;-5.20;99.90;;;;;;5017621;28;20089;-80
2021/01/15 03:47:14;;;;;;;8.80;5.60;;;-5.20;99.90;;;;;;5023453;28;20089;-80
2021/01/15 03:49:39;;;;;;;9.47;5.80;;;-5.00;99.90;;;;;;5019217;28;20208;-80
2021/01/15 03:52:09;;;;;;;7.97;5.10;;;-4.90;99.90;;;;;;5006085;28;20580;-80
2021/01/15 03:54:35;;;;;;;10.70;5.50;;;-5.40;99.90;;;;;;5014410;28;20166;-79
2021/01/15 03:57:00;;;;;;;9.37;5.40;;;-5.70;99.90;;;;;;5021430;28;20479;-80
2021/01/15 03:59:26;;;;;;;11.50;5.33;;;-6.00;99.90;;;;;;5016256;28;20468;-80
2021/01/15 04:01:52;;;;;;;10.10;5.63;;;-6.20;99.90;;;;;;5017003;28;20063;-80
2021/01/15 04:04:17;;;;;;;10.93;6.07;;;-5.90;99.90;;;;;;5019025;28;20495;-80
2021/01/15 04:06:43;;;;;;;9.80;6.27;;;-5.80;99.90;;;;;;5005194;28;20086;-80
2021/01/15 04:09:08;;;;;;;10.80;6.43;;;-5.40;99.90;;;;;;5014685;28;20169;-80
2021/01/15 04:11:34;;;;;;;14.03;5.97;;;-5.20;99.90;;;;;;5018214;28;20151;-80
2021/01/15 04:13:59;;;;;;;11.90;5.63;;;-5.40;99.90;;;;;;5008183;28;20101;-80
2021/01/15 04:16:25;;;;;;;11.67;6.33;;;-5.30;99.90;;;;;;5010065;28;20093;-80
2021/01/15 04:18:50;;;;;;;11.63;5.90;;;-5.30;99.90;;;;;;5008565;28;20174;-80
2021/01/15 04:21:16;;;;;;;7.90;5.17;;;-5.30;99.90;;;;;;5006218;28;20101;-80
2021/01/15 04:23:44;;;;;;;9.97;5.90;;;-5.40;99.80;;;;;;5020353;28;20075;-80
2021/01/15 04:26:16;;;;;;;10.47;5.57;;;-5.60;99.90;;;;;;5018942;28;20456;-80
2021/01/15 04:28:41;;;;;;;10.50;6.13;;;-5.50;99.90;;;;;;5012032;28;20202;-80
2021/01/15 04:31:07;;;;;;;9.90;6.03;;;-5.20;99.90;;;;;;5016055;28;20129;-80
2021/01/15 04:33:34;;;;;;;10.43;5.30;;;-5.10;99.20;;;;;;5016082;28;20148;-80
2021/01/15 04:36:00;;;;;;;9.07;5.73;;;-5.40;98.90;;;;;;5010669;28;20452;-80
2021/01/15 04:38:25;;;;;;;10.97;5.43;;;-6.00;99.90;;;;;;5022111;28;20173;-80
2021/01/15 04:40:57;;;;;;;9.93;5.20;;;-6.30;99.90;;;;;;5019196;28;20144;-80
2021/01/15 04:43:27;;;;;;;10.33;5.20;;;-6.20;99.90;;;;;;5016990;28;20070;-80
2021/01/15 04:45:54;;;;;;;12.07;6.03;;;-6.00;99.90;;;;;;5020122;28;20085;-80
2021/01/15 04:48:21;;;;;;;8.70;5.50;;;-6.10;99.90;;;;;;5021278;28;20078;-80
2021/01/15 04:50:48;;;;;;;15.40;6.00;;;-5.70;99.90;;;;;;5017540;28;20479;-80
2021/01/15 04:53:19;;;;;;;10.70;5.60;;;-5.50;99.90;;;;;;5022329;28;20090;-80
2021/01/15 04:55:44;;;;;;;11.60;6.00;;;-5.70;99.90;;;;;;5022606;28;20070;-80
2021/01/15 04:58:14;;;;;;;12.43;5.77;;;-5.70;99.90;;;;;;5019987;28;20129;-80
2021/01/15 05:00:41;;;;;;;10.57;6.07;;;-6.00;99.90;;;;;;5021744;28;20113;-80
2021/01/15 05:03:09;;;;;;;11.73;5.93;;;-6.00;99.90;;;;;;5037568;28;20078;-80
2021/01/15 05:05:43;;;;;;;10.00;5.27;;;-6.40;99.90;;;;;;5021693;28;20079;-80
2021/01/15 05:08:14;;;;;;;18.00;7.32;;;-6.50;99.90;;;;;;5013659;28;20071;-80
2021/01/15 05:10:45;;;;;;;19.53;8.30;;;-5.90;99.90;;;;;;5015302;28;20649;-80
2021/01/15 05:13:14;;;;;;;15.80;7.93;;;-6.00;99.90;;;;;;5025286;28;20094;-80
2021/01/15 05:15:45;;;;;;;20.23;9.10;;;-6.10;99.90;;;;;;5016764;28;20109;-80
2021/01/15 05:18:11;;;;;;;13.63;5.97;;;-5.70;99.90;;;;;;5023383;28;20149;-80
2021/01/15 05:20:37;;;;;;;11.80;6.70;;;-6.20;99.90;;;;;;5020323;28;20094;-80
2021/01/15 05:23:04;;;;;;;11.13;5.87;;;-6.40;99.90;;;;;;5010580;28;20097;-80
2021/01/15 05:25:31;;;;;;;14.10;6.37;;;-6.50;99.90;;;;;;5009931;28;20181;-80
2021/01/15 05:27:57;;;;;;;9.57;5.77;;;-6.50;99.90;;;;;;5001323;28;20098;-80
2021/01/15 05:30:24;;;;;;;14.90;6.67;;;-6.10;99.90;;;;;;5007124;28;20608;-80
2021/01/15 05:32:54;;;;;;;19.87;8.50;;;-6.20;99.90;;;;;;5010834;28;20078;-80
2021/01/15 05:35:40;;;;;;;32.23;14.27;;;-7.20;99.90;;;;;;5015448;28;20074;-80
2021/01/15 05:38:05;;;;;;;28.10;12.77;;;-6.70;99.90;;;;;;5007676;28;20082;-80
2021/01/15 05:40:46;;;;;;;27.47;11.23;;;-6.30;99.90;;;;;;5008386;28;20097;-80
2021/01/15 05:43:22;;;;;;;26.43;13.83;;;-6.10;99.90;;;;;;5013588;28;20078;-80
2021/01/15 05:46:07;;;;;;;23.13;9.67;;;-6.40;99.90;;;;;;5010400;28;20448;-80
2021/01/15 05:48:33;;;;;;;14.77;6.70;;;-6.40;99.90;;;;;;5013401;28;20188;-80
2021/01/15 05:50:59;;;;;;;18.23;7.73;;;-6.50;99.90;;;;;;4998059;28;20181;-79
2021/01/15 05:53:25;;;;;;;16.73;7.80;;;-6.40;99.90;;;;;;5002960;28;20167;-80
2021/01/15 05:56:00;;;;;;;13.83;8.00;;;-6.60;99.90;;;;;;5009379;28;20430;-79
2021/01/15 05:58:25;;;;;;;;;;;-6.40;99.90;;;;;;4999544;28;20430;-79
2021/01/15 06:00:52;;;;;;;19.20;7.87;;;-6.30;99.90;;;;;;5003418;28;20013;-79
2021/01/15 06:03:22;;;;;;;18.87;8.63;;;-6.00;99.90;;;;;;5004474;28;20625;-80
2021/01/15 06:05:52;;;;;;;18.93;9.90;;;-6.00;99.90;;;;;;5001459;28;20081;-80
2021/01/15 06:08:18;;;;;;;16.03;8.30;;;-5.70;99.90;;;;;;4999886;28;20165;-79
2021/01/15 06:10:46;;;;;;;15.97;8.13;;;-5.50;99.90;;;;;;4997542;28;20140;-79
2021/01/15 06:13:32;;;;;;;19.90;9.17;;;-5.20;99.90;;;;;;5008739;28;20457;-80
2021/01/15 06:16:00;;;;;;;22.23;9.33;;;-5.00;99.90;;;;;;5003527;28;20078;-80
2021/01/15 06:18:26;;;;;;;23.87;10.60;;;-5.00;99.90;;;;;;5012146;28;20071;-79
2021/01/15 06:21:07;;;;;;;24.33;11.37;;;-5.10;99.90;;;;;;4998863;28;20121;-80
2021/01/15 06:23:39;;;;;;;22.97;9.67;;;-4.90;99.90;;;;;;5006102;28;20571;-80
2021/01/15 06:26:10;;;;;;;21.17;8.60;;;-4.70;99.90;;;;;;5008755;28;20090;-79
2021/01/15 06:28:37;;;;;;;16.77;9.30;;;-4.50;99.90;;;;;;5003727;28;20114;-80
2021/01/15 06:31:08;;;;;;;18.93;8.87;;;-4.90;99.90;;;;;;5007528;28;20178;-80
2021/01/15 06:33:34;;;;;;;19.03;8.77;;;-4.80;99.90;;;;;;4996566;28;20516;-80
2021/01/15 06:35:59;;;;;;;20.83;9.20;;;-4.60;99.90;;;;;;5005911;28;20075;-79
2021/01/15 06:38:30;;;;;;;18.43;9.33;;;-4.70;99.90;;;;;;4998800;28;20079;-80
2021/01/15 06:40:57;;;;;;;20.10;9.50;;;-4.40;99.90;;;;;;4996858;28;20129;-80
2021/01/15 06:43:22;;;;;;;19.77;10.53;;;-4.20;99.90;;;;;;4999135;28;20078;-80
2021/01/15 06:45:50;;;;;;;24.10;9.87;;;-4.80;99.90;;;;;;5009757;28;20532;-80
2021/01/15 06:48:21;;;;;;;20.93;10.13;;;-4.80;99.90;;;;;;5009516;28;20083;-80
2021/01/15 06:50:52;;;;;;;20.30;9.90;;;-4.90;99.90;;;;;;5016651;28;20094;-80
2021/01/15 06:53:20;;;;;;;19.90;10.00;;;-4.80;99.90;;;;;;5008840;28;20395;-80
2021/01/15 06:55:50;;;;;;;18.87;9.97;;;-4.60;99.90;;;;;;5010275;28;20089;-80
2021/01/15 06:58:21;;;;;;;21.70;10.13;;;-4.40;99.90;;;;;;5012342;28;20106;-80
2021/01/15 07:01:00;;;;;;;18.57;9.80;;;-4.40;99.90;;;;;;5008564;28;20094;-80
2021/01/15 07:03:59;;;;;;;21.60;10.70;;;-4.20;99.90;;;;;;5006481;28;20537;-80
2021/01/15 07:06:28;;;;;;;20.97;9.80;;;-4.40;99.90;;;;;;5007338;28;20092;-80
2021/01/15 07:08:55;;;;;;;18.53;10.00;;;-4.40;99.90;;;;;;5013370;28;20205;-80
2021/01/15 07:11:23;;;;;;;19.40;10.47;;;-4.10;99.90;;;;;;5006343;28;20124;-80
2021/01/15 07:13:58;;;;;;;25.70;11.80;;;-4.30;99.90;;;;;;4998463;28;20098;-80
2021/01/15 07:16:36;;;;;;;25.63;11.23;;;-4.50;99.90;;;;;;5011086;28;20675;-80
2021/01/15 07:19:05;;;;;;;25.87;12.40;;;-4.40;99.90;;;;;;5009113;28;20236;-80
2021/01/15 07:21:36;;;;;;;28.97;13.67;;;-4.10;99.90;;;;;;5013489;28;20118;-80
2021/01/15 07:24:17;;;;;;;22.93;10.60;;;-4.00;99.90;;;;;;5009748;28;20516;-80
2021/01/15 07:26:48;;;;;;;24.10;12.80;;;-3.90;99.90;;;;;;5004548;28;20079;-80
2021/01/15 07:29:16;;;;;;;21.43;11.50;;;-4.00;99.90;;;;;;5000478;28;20094;-80
2021/01/15 07:31:47;;;;;;;28.27;12.23;;;-4.00;99.90;;;;;;5003390;28;20125;-80
2021/01/15 07:34:18;;;;;;;30.37;12.57;;;-4.10;99.90;;;;;;5012180;28;20095;-80
2021/01/15 07:36:43;;;;;;;28.50;13.23;;;-4.00;99.90;;;;;;5007676;28;20561;-80
2021/01/15 07:39:14;;;;;;;34.93;13.63;;;-4.10;99.90;;;;;;5009714;28;20534;-80
2021/01/15 07:41:40;;;;;;;31.80;15.70;;;-4.00;99.90;;;;;;5007233;28;20129;-80
2021/01/15 07:44:21;;;;;;;30.17;15.03;;;-4.00;99.90;;;;;;5009940;28;20504;-80
2021/01/15 07:46:48;;;;;;;33.87;15.80;;;-3.90;99.90;;;;;;5008842;28;20078;-80
2021/01/15 07:49:14;;;;;;;31.07;16.60;;;-3.70;99.90;;;;;;5011029;28;20089;-80
2021/01/15 07:51:39;;;;;;;29.60;14.17;;;-3.60;99.90;;;;;;5006487;28;20075;-80
2021/01/15 07:54:05;;;;;;;28.03;13.37;;;-3.50;99.90;;;;;;5010559;28;20098;-80
2021/01/15 07:56:31;;;;;;;39.77;15.30;;;-3.50;99.90;;;;;;4999825;28;20090;-80
2021/01/15 07:58:57;;;;;;;32.10;14.13;;;-3.50;99.90;;;;;;5003554;28;20585;-79
2021/01/15 08:01:23;;;;;;;28.73;13.37;;;-3.50;99.90;;;;;;5024135;28;20102;-80
2021/01/15 08:03:54;;;;;;;43.60;17.67;;;-3.30;99.90;;;;;;5008893;28;20705;-80
2021/01/15 08:06:21;;;;;;;42.10;16.87;;;-3.20;99.90;;;;;;5006470;28;20083;-80
2021/01/15 08:09:02;;;;;;;36.10;17.23;;;-3.10;99.90;;;;;;5013730;28;20083;-80
2021/01/15 08:11:29;;;;;;;39.47;17.83;;;-3.10;99.90;;;;;;5006302;28;20140;-80
2021/01/15 08:14:13;;;;;;;28.90;13.47;;;-2.90;99.90;;;;;;5008612;28;20090;-80
2021/01/15 08:16:46;;;;;;;29.50;16.43;;;-2.80;99.90;;;;;;5013286;28;20157;-80
2021/01/15 08:19:14;;;;;;;34.13;16.17;;;-2.90;99.90;;;;;;5007805;28;20081;-79
2021/01/15 08:21:41;;;;;;;52.70;23.53;;;-2.90;99.90;;;;;;5028202;28;20082;-80
2021/01/15 08:24:07;;;;;;;52.07;24.80;;;-2.80;99.90;;;;;;5003621;28;20087;-80
2021/01/15 08:26:52;;;;;;;51.40;23.47;;;-2.60;99.90;;;;;;5006146;28;20074;-80
2021/01/15 08:29:22;;;;;;;39.92;19.75;;;-2.50;99.90;;;;;;5010057;28;20104;-80
2021/01/15 08:31:48;;;;;;;38.73;20.80;;;-2.50;99.90;;;;;;5005567;28;20094;-80
2021/01/15 08:34:16;;;;;;;32.10;16.73;;;-2.50;99.90;;;;;;5012764;28;20221;-80
2021/01/15 08:36:42;;;;;;;34.07;17.17;;;-2.40;99.90;;;;;;5006624;28;20099;-80
2021/01/15 08:39:08;;;;;;;34.17;17.73;;;-2.30;99.90;;;;;;4996506;28;20074;-80
2021/01/15 08:41:35;;;;;;;35.73;18.93;;;-2.30;99.90;;;;;;5008707;28;20202;-80
2021/01/15 08:44:00;;;;;;;36.30;16.57;;;-2.20;99.90;;;;;;5009561;28;20079;-79
2021/01/15 08:46:26;;;;;;;36.40;16.97;;;-2.20;99.90;;;;;;5009194;28;20085;-79
2021/01/15 08:48:52;;;;;;;33.33;16.60;;;-2.20;99.90;;;;;;5006053;28;20097;-80
2021/01/15 08:51:21;;;;;;;30.77;16.60;;;-2.30;99.90;;;;;;5006065;28;20098;-79
2021/01/15 08:54:06;;;;;;;28.80;14.93;;;-2.20;99.90;;;;;;5012747;28;20102;-80
2021/01/15 08:56:43;;;;;;;29.37;14.80;;;-2.00;99.90;;;;;;5006962;28;20089;-80
2021/01/15 08:59:14;;;;;;;32.13;16.03;;;-2.00;99.90;;;;;;5011311;28;20078;-80
2021/01/15 09:01:41;;;;;;;34.93;16.37;;;-2.10;99.90;;;;;;5012435;28;20078;-80
2021/01/15 09:04:11;;;;;;;28.83;14.00;;;-2.20;99.90;;;;;;5013475;28;20078;-80
2021/01/15 09:06:38;;;;;;;27.37;14.80;;;-2.20;99.90;;;;;;5000359;28;20201;-80
2021/01/15 09:09:11;;;;;;;33.43;16.83;;;-2.30;99.90;;;;;;5003540;28;20078;-80
2021/01/15 09:11:41;;;;;;;31.27;15.27;;;-2.20;99.90;;;;;;5003982;28;20091;-80
2021/01/15 09:14:15;;;;;;;32.33;13.97;;;-2.30;99.90;;;;;;5013138;28;20090;-80
2021/01/15 09:16:43;;;;;;;33.50;15.43;;;-2.40;99.90;;;;;;5012323;28;20452;-80
2021/01/15 09:19:12;;;;;;;32.83;16.10;;;-2.40;99.90;;;;;;5013272;28;20105;-80
2021/01/15 09:21:57;;;;;;;29.97;13.73;;;-2.30;99.90;;;;;;5010190;28;20102;-80
2021/01/15 09:24:23;;;;;;;34.60;16.48;;;-2.30;99.90;;;;;;5014212;28;20078;-80
2021/01/15 09:27:03;;;;;;;32.90;15.93;;;-2.40;99.90;;;;;;5011180;28;20173;-80
2021/01/15 09:29:30;;;;;;;33.97;17.07;;;-2.20;99.90;;;;;;5008994;28;20075;-79
2021/01/15 09:31:56;;;;;;;35.50;17.37;;;-2.10;99.90;;;;;;5004462;28;20091;-80
2021/01/15 09:34:23;;;;;;;35.20;16.80;;;-2.20;99.90;;;;;;5009448;28;20460;-80
2021/01/15 09:36:50;;;;;;;28.93;14.73;;;-2.30;99.90;;;;;;5007155;28;20089;-80
2021/01/15 09:39:19;;;;;;;30.40;15.53;;;-2.40;99.90;;;;;;5015706;28;20081;-80
2021/01/15 09:41:49;;;;;;;29.90;14.90;;;-2.50;99.90;;;;;;5012078;28;20240;-80
2021/01/15 09:44:16;;;;;;;34.37;16.07;;;-2.60;99.90;;;;;;5008477;28;20209;-80
2021/01/15 09:46:42;;;;;;;31.97;14.17;;;-2.70;99.90;;;;;;5004181;28;20568;-80
2021/01/15 09:49:08;;;;;;;36.43;15.40;;;-2.60;99.90;;;;;;5010876;28;20601;-80
2021/01/15 09:51:34;;;;;;;33.93;18.40;;;-2.50;99.90;;;;;;5004753;28;20289;-80
2021/01/15 09:54:00;;;;;;;34.20;16.00;;;-2.60;99.90;;;;;;5009993;28;20473;-80
2021/01/15 09:56:33;;;;;;;25.90;14.13;;;-2.60;99.90;;;;;;5007610;28;20169;-79
2021/01/15 09:59:00;;;;;;;37.10;16.27;;;-2.50;99.90;;;;;;5005007;28;20075;-80
2021/01/15 10:01:27;;;;;;;34.87;15.93;;;-2.50;99.90;;;;;;5003938;28;20110;-80
2021/01/15 10:03:54;;;;;;;31.83;16.63;;;-2.70;99.90;;;;;;5004432;28;20209;-80
2021/01/15 10:06:20;;;;;;;34.93;17.13;;;-2.70;99.90;;;;;;5002438;28;20628;-80
2021/01/15 10:08:46;;;;;;;23.60;14.33;;;-2.70;99.90;;;;;;5002527;28;20165;-80
2021/01/15 10:11:42;;;;;;;30.87;15.80;;;-2.90;99.90;;;;;;4999587;28;20094;-79
2021/01/15 10:14:14;;;;;;;45.27;19.80;;;-3.00;99.90;;;;;;5008810;28;20098;-80
2021/01/15 10:16:49;;;;;;;85.17;34.40;;;-3.10;99.90;;;;;;5021312;28;20071;-80
2021/01/15 10:19:18;;;;;;;29.40;14.97;;;-3.10;99.90;;;;;;5007310;28;20059;-80
2021/01/15 10:21:45;;;;;;;35.87;18.27;;;-3.20;99.90;;;;;;5010287;28;20097;-80
2021/01/15 10:24:12;;;;;;;32.23;16.80;;;-3.10;99.90;;;;;;5008461;28;20089;-80
2021/01/15 10:26:38;;;;;;;26.33;14.20;;;-3.00;99.90;;;;;;5009135;28;20449;-80
2021/01/15 10:29:10;;;;;;;29.33;13.63;;;-2.90;99.90;;;;;;4999186;28;20071;-80
2021/01/15 10:31:50;;;;;;;30.43;14.23;;;-3.00;99.90;;;;;;5008536;28;20098;-80
2021/01/15 10:34:16;;;;;;;29.50;13.10;;;-3.10;99.90;;;;;;5007767;28;20101;-80
2021/01/15 10:36:44;;;;;;;28.87;13.50;;;-3.00;99.90;;;;;;5005296;28;20070;-80
2021/01/15 10:39:10;;;;;;;29.67;12.50;;;-3.10;99.90;;;;;;5007810;28;20067;-80
2021/01/15 10:41:38;;;;;;;29.40;13.03;;;-3.10;99.90;;;;;;5003136;28;20250;-80
2021/01/15 10:44:06;;;;;;;44.90;15.10;;;-3.10;99.90;;;;;;5003634;28;20545;-80
2021/01/15 10:46:40;;;;;;;29.03;13.67;;;-3.20;99.90;;;;;;4999717;28;20074;-80
2021/01/15 10:49:10;;;;;;;30.40;14.60;;;-3.20;99.90;;;;;;5004788;28;20563;-80
2021/01/15 10:51:41;;;;;;;30.30;15.07;;;-3.10;99.90;;;;;;5008810;28;20099;-80
2021/01/15 10:54:07;;;;;;;29.77;15.37;;;-3.10;99.90;;;;;;5008394;28;20141;-80
2021/01/15 10:56:41;;;;;;;31.70;16.00;;;-3.00;99.90;;;;;;5012533;28;20537;-80
2021/01/15 10:59:07;;;;;;;25.13;13.50;;;-2.80;99.90;;;;;;5010195;28;20101;-80
2021/01/15 11:01:43;;;;;;;28.40;13.63;;;-2.80;99.90;;;;;;4997546;28;20098;-81
2021/01/15 11:04:11;;;;;;;24.67;13.63;;;-2.80;99.90;;;;;;5008330;28;20070;-80
2021/01/15 11:06:46;;;;;;;25.10;13.97;;;-2.70;99.90;;;;;;5010752;28;20085;-80
2021/01/15 11:09:21;;;;;;;24.17;14.23;;;-2.60;99.90;;;;;;5007425;28;20087;-81
2021/01/15 11:11:48;;;;;;;29.10;15.80;;;-2.50;99.90;;;;;;5000320;28;20078;-80
2021/01/15 11:14:14;;;;;;;28.90;14.63;;;-2.40;99.90;;;;;;5009348;28;20469;-81
2021/01/15 11:16:40;;;;;;;28.10;15.30;;;-2.40;99.90;;;;;;5010255;28;20137;-80
2021/01/15 11:19:06;;;;;;;26.83;13.77;;;-2.50;99.90;;;;;;5001443;28;20561;-80
2021/01/15 11:21:31;;;;;;;32.00;14.90;;;-2.40;99.90;;;;;;5008115;28;20085;-80
2021/01/15 11:23:57;;;;;;;27.03;13.27;;;-2.40;99.90;;;;;;5000570;28;20104;-80
2021/01/15 11:26:26;;;;;;;25.37;14.50;;;-2.40;99.90;;;;;;5013565;28;20078;-80
2021/01/15 11:28:54;;;;;;;36.17;16.27;;;-2.30;99.90;;;;;;5007222;28;20157;-81
2021/01/15 11:31:20;;;;;;;30.63;15.50;;;-2.30;99.90;;;;;;5011217;28;20578;-81
2021/01/15 11:33:46;;;;;;;31.37;16.47;;;-2.50;99.90;;;;;;5011665;28;20495;-80
2021/01/15 11:36:12;;;;;;;35.53;18.17;;;-2.20;99.90;;;;;;5007486;28;20082;-80
2021/01/15 11:38:39;;;;;;;26.57;14.63;;;-2.10;99.90;;;;;;5003412;28;20070;-80
2021/01/15 11:41:05;;;;;;;22.43;14.60;;;-2.00;99.90;;;;;;5002011;28;20137;-80
2021/01/15 11:43:38;;;;;;;24.83;13.37;;;-2.00;99.90;;;;;;5012447;28;20209;-80
2021/01/15 11:46:04;;;;;;;30.73;15.70;;;-2.10;99.90;;;;;;5006630;28;20089;-80
2021/01/15 11:48:31;;;;;;;29.43;14.93;;;-1.90;99.90;;;;;;5008047;28;20078;-80
2021/01/15 11:50:58;;;;;;;25.03;12.40;;;-2.00;99.90;;;;;;5003496;28;20090;-80
2021/01/15 11:53:24;;;;;;;24.87;14.10;;;-1.80;99.90;;;;;;5008531;28;20122;-80
2021/01/15 11:55:51;;;;;;;27.07;14.80;;;-1.90;99.90;;;;;;5011677;28;20109;-80
2021/01/15 11:58:17;;;;;;;23.63;13.43;;;-1.70;99.90;;;;;;5008841;28;20074;-80
2021/01/15 12:00:42;;;;;;;22.77;13.27;;;-1.70;99.90;;;;;;5009231;28;20086;-79
2021/01/15 12:03:08;;;;;;;22.00;13.33;;;-1.70;99.90;;;;;;5004119;28;20161;-80
2021/01/15 12:05:39;;;;;;;22.77;14.27;;;-1.80;99.90;;;;;;5009080;28;20087;-80
2021/01/15 12:08:05;;;;;;;25.63;14.13;;;-1.70;99.90;;;;;;5012302;28;20176;-80
2021/01/15 12:10:30;;;;;;;26.27;15.17;;;-1.70;99.90;;;;;;5009456;28;20704;-80
2021/01/15 12:12:56;;;;;;;21.40;12.70;;;-1.70;99.90;;;;;;4998962;28;20094;-80
2021/01/15 12:15:21;;;;;;;23.57;13.37;;;-1.70;99.90;;;;;;5007262;28;20440;-80
2021/01/15 12:17:47;;;;;;;24.37;12.27;;;-1.60;99.90;;;;;;5005306;28;20537;-80
2021/01/15 12:20:13;;;;;;;24.63;14.23;;;-1.40;99.90;;;;;;5002553;28;20181;-80
2021/01/15 12:22:38;;;;;;;26.90;14.60;;;-1.50;99.90;;;;;;5000525;28;20166;-80
2021/01/15 12:25:04;;;;;;;29.33;15.70;;;-1.60;99.90;;;;;;5009385;28;20086;-80
2021/01/15 12:27:30;;;;;;;23.43;13.17;;;-1.70;99.90;;;;;;5006978;28;20121;-80
2021/01/15 12:29:55;;;;;;;23.57;12.20;;;-1.80;99.90;;;;;;5009819;28;20788;-80
2021/01/15 12:32:21;;;;;;;21.43;12.90;;;-1.90;99.90;;;;;;5003399;28;20472;-81
2021/01/15 12:34:46;;;;;;;23.63;13.03;;;-1.90;99.90;;;;;;4993073;28;20616;-79
2021/01/15 12:37:12;;;;;;;23.73;12.40;;;-2.00;99.90;;;;;;5002843;28;20434;-80
2021/01/15 12:39:38;;;;;;;21.07;11.87;;;-2.00;99.90;;;;;;4996340;28;20091;-80
2021/01/15 12:42:03;;;;;;;19.80;10.90;;;-1.90;99.90;;;;;;4995740;28;20075;-80
2021/01/15 12:44:29;;;;;;;20.87;11.20;;;-1.90;99.90;;;;;;5009020;28;20121;-80